createdAt,value
2019-01-18T00:02:00.416Z,21.34
2019-01-18T00:04:26.439Z,21.33
2019-01-18T00:06:52.450Z,21.33
2019-01-18T00:09:18.458Z,21.32
2019-01-18T00:11:44.531Z,21.32
2019-01-18T00:14:10.479Z,21.32
2019-01-18T00:16:36.479Z,21.32
2019-01-18T00:19:02.506Z,21.32
2019-01-18T00:21:28.485Z,21.32
2019-01-18T00:23:54.526Z,21.31
2019-01-18T00:26:20.515Z,21.30
2019-01-18T00:28:46.503Z,21.30
2019-01-18T00:31:12.542Z,21.30
2019-01-18T00:33:38.552Z,21.30
2019-01-18T00:36:04.558Z,21.32
2019-01-18T00:38:30.586Z,21.30
2019-01-18T00:40:56.569Z,21.29
2019-01-18T00:43:22.557Z,21.30
2019-01-18T00:45:48.571Z,21.30
2019-01-18T00:48:14.568Z,21.29
2019-01-18T00:50:40.605Z,21.31
2019-01-18T00:53:06.658Z,21.30
2019-01-18T00:55:32.673Z,21.29
2019-01-18T00:57:58.655Z,21.29
2019-01-18T01:00:24.670Z,21.30
2019-01-18T01:02:50.668Z,21.29
2019-01-18T01:05:16.655Z,21.28
2019-01-18T01:07:42.683Z,21.28
2019-01-18T01:10:08.687Z,21.28
2019-01-18T01:12:34.701Z,21.28
2019-01-18T01:15:00.741Z,21.27
2019-01-18T01:17:26.721Z,21.27
2019-01-18T01:19:52.703Z,21.26
2019-01-18T01:22:18.729Z,21.27
2019-01-18T01:24:44.726Z,21.27
2019-01-18T01:27:10.725Z,21.26
2019-01-18T01:29:42.921Z,21.26
2019-01-18T01:32:02.745Z,21.26
2019-01-18T01:34:28.745Z,21.26
2019-01-18T01:36:54.776Z,21.26
2019-01-18T01:39:20.758Z,21.25
2019-01-18T01:41:46.757Z,21.25
2019-01-18T01:44:12.768Z,21.26
2019-01-18T01:46:38.764Z,21.25
2019-01-18T01:49:04.810Z,21.25
2019-01-18T01:51:30.854Z,21.25
2019-01-18T01:53:56.859Z,21.25
2019-01-18T01:56:22.862Z,21.24
2019-01-18T01:58:48.896Z,21.25
2019-01-18T02:01:14.879Z,21.24
2019-01-18T02:03:40.881Z,21.25
2019-01-18T02:06:06.921Z,21.25
2019-01-18T02:08:32.908Z,21.25
2019-01-18T02:10:58.897Z,21.24
2019-01-18T02:13:24.940Z,21.24
2019-01-18T02:15:50.944Z,21.23
2019-01-18T02:18:16.924Z,21.23
2019-01-18T02:20:43.063Z,21.24
2019-01-18T02:23:09.055Z,21.24
2019-01-18T02:25:35.035Z,21.23
2019-01-18T02:28:01.057Z,21.23
2019-01-18T02:30:27.042Z,21.23
2019-01-18T02:32:53.040Z,21.23
2019-01-18T02:35:19.087Z,21.23
2019-01-18T02:37:45.090Z,21.23
2019-01-18T02:40:11.075Z,21.23
2019-01-18T02:42:37.117Z,21.24
2019-01-18T02:45:03.129Z,21.23
2019-01-18T02:47:29.107Z,21.22
2019-01-18T02:49:55.135Z,21.23
2019-01-18T02:52:21.133Z,21.22
2019-01-18T02:54:47.123Z,21.22
2019-01-18T02:57:13.159Z,21.22
2019-01-18T02:59:39.153Z,21.22
2019-01-18T03:02:05.142Z,21.21
2019-01-18T03:04:31.176Z,21.21
2019-01-18T03:06:57.154Z,21.22
2019-01-18T03:09:23.132Z,21.21
2019-01-18T03:11:49.170Z,21.21
2019-01-18T03:14:15.163Z,21.23
2019-01-18T03:16:41.152Z,21.21
2019-01-18T03:19:07.184Z,21.20
2019-01-18T03:21:33.170Z,21.21
2019-01-18T03:23:59.177Z,21.20
2019-01-18T03:26:25.203Z,21.20
2019-01-18T03:28:51.188Z,21.20
2019-01-18T03:31:17.208Z,21.20
2019-01-18T03:33:43.205Z,21.20
2019-01-18T03:36:09.200Z,21.20
2019-01-18T03:38:35.198Z,21.20
2019-01-18T03:41:01.236Z,21.19
2019-01-18T03:43:27.249Z,21.19
2019-01-18T03:45:53.250Z,21.19
2019-01-18T03:48:19.273Z,21.19
2019-01-18T03:50:45.262Z,21.19
2019-01-18T03:53:11.260Z,21.19
2019-01-18T03:55:37.260Z,21.19
2019-01-18T03:58:03.270Z,21.18
2019-01-18T04:00:29.298Z,21.18
2019-01-18T04:02:55.304Z,21.16
2019-01-18T04:05:21.303Z,21.18
2019-01-18T04:07:47.334Z,21.17
2019-01-18T04:10:13.334Z,21.18
2019-01-18T04:12:39.329Z,21.17
2019-01-18T04:15:05.367Z,21.17
2019-01-18T04:17:31.369Z,21.17
2019-01-18T04:19:57.361Z,21.16
2019-01-18T04:22:23.391Z,21.16
2019-01-18T04:24:49.501Z,21.16
2019-01-18T04:27:15.509Z,21.17
2019-01-18T04:29:41.543Z,21.17
2019-01-18T04:32:07.549Z,21.16
2019-01-18T04:34:33.538Z,21.15
2019-01-18T04:36:59.557Z,21.15
2019-01-18T04:39:25.566Z,21.16
2019-01-18T04:41:51.573Z,21.13
2019-01-18T04:44:17.603Z,21.14
2019-01-18T04:46:43.587Z,21.15
2019-01-18T04:49:09.572Z,21.15
2019-01-18T04:51:35.612Z,21.15
2019-01-18T04:54:01.597Z,21.14
2019-01-18T04:56:27.583Z,21.14
2019-01-18T04:58:53.610Z,21.14
2019-01-18T05:01:19.600Z,21.13
2019-01-18T05:03:45.607Z,21.13
2019-01-18T05:06:11.631Z,21.12
2019-01-18T05:08:37.623Z,21.13
2019-01-18T05:11:03.673Z,21.13
2019-01-18T05:13:29.696Z,21.13
2019-01-18T05:15:55.717Z,21.12
2019-01-18T05:18:21.687Z,21.12
2019-01-18T05:20:47.710Z,21.12
2019-01-18T05:23:13.709Z,21.14
2019-01-18T05:25:39.698Z,21.12
2019-01-18T05:28:05.779Z,21.11
2019-01-18T05:30:31.756Z,21.12
2019-01-18T05:32:57.774Z,21.12
2019-01-18T05:35:23.810Z,21.12
2019-01-18T05:37:49.802Z,21.11
2019-01-18T05:40:15.787Z,21.11
2019-01-18T05:42:41.840Z,21.12
2019-01-18T05:45:07.825Z,21.12
2019-01-18T05:47:33.839Z,21.11
2019-01-18T05:49:59.889Z,21.11
2019-01-18T05:52:25.890Z,21.11
2019-01-18T05:54:51.889Z,21.09
2019-01-18T05:57:17.913Z,21.10
2019-01-18T05:59:43.908Z,21.11
2019-01-18T06:02:09.901Z,21.11
2019-01-18T06:04:35.922Z,21.11
2019-01-18T06:07:01.912Z,21.10
2019-01-18T06:09:27.917Z,21.09
2019-01-18T06:11:53.947Z,21.08
2019-01-18T06:14:19.934Z,21.09
2019-01-18T06:16:45.938Z,21.10
2019-01-18T06:19:12.023Z,21.10
2019-01-18T06:21:38.051Z,21.10
2019-01-18T06:24:04.070Z,21.10
2019-01-18T06:26:30.134Z,21.08
2019-01-18T06:28:56.123Z,21.10
2019-01-18T06:31:22.114Z,21.09
2019-01-18T06:33:48.186Z,21.09
2019-01-18T06:36:14.205Z,21.10
2019-01-18T06:38:40.194Z,21.10
2019-01-18T06:41:06.236Z,21.10
2019-01-18T06:43:32.240Z,21.10
2019-01-18T06:45:58.228Z,21.10
2019-01-18T06:48:24.275Z,21.10
2019-01-18T06:50:50.269Z,21.10
2019-01-18T06:53:16.262Z,21.10
2019-01-18T06:55:42.304Z,21.11
2019-01-18T06:58:08.303Z,21.10
2019-01-18T07:00:34.300Z,21.09
2019-01-18T07:03:00.316Z,21.08
2019-01-18T07:05:26.298Z,21.09
2019-01-18T07:07:52.332Z,21.09
2019-01-18T07:10:20.920Z,21.07
2019-01-18T07:12:44.379Z,21.08
2019-01-18T07:15:10.402Z,21.08
2019-01-18T07:17:36.406Z,21.07
2019-01-18T07:20:02.412Z,21.07
2019-01-18T07:22:28.456Z,21.09
2019-01-18T07:24:54.545Z,21.09
2019-01-18T07:27:20.593Z,21.11
2019-01-18T07:29:46.553Z,21.12
2019-01-18T07:32:12.547Z,21.11
2019-01-18T07:34:38.586Z,21.12
2019-01-18T07:37:04.638Z,21.12
2019-01-18T07:39:30.624Z,21.13
2019-01-18T07:41:56.649Z,21.13
2019-01-18T07:44:22.689Z,21.14
2019-01-18T07:46:48.675Z,21.13
2019-01-18T07:49:14.708Z,21.14
2019-01-18T07:51:40.733Z,21.16
2019-01-18T07:54:06.716Z,21.16
2019-01-18T07:56:32.731Z,21.17
2019-01-18T07:58:58.762Z,21.17
2019-01-18T08:01:24.792Z,21.17
2019-01-18T08:03:50.749Z,21.18
2019-01-18T08:06:16.771Z,21.18
2019-01-18T08:08:42.950Z,21.19
2019-01-18T08:11:08.940Z,21.19
2019-01-18T08:13:34.977Z,21.20
2019-01-18T08:16:00.972Z,21.20
2019-01-18T08:18:26.966Z,21.20
2019-01-18T08:20:52.999Z,21.21
2019-01-18T08:23:18.981Z,21.21
2019-01-18T08:25:44.969Z,21.22
2019-01-18T08:28:10.992Z,21.22
2019-01-18T08:30:37.003Z,21.24
2019-01-18T08:33:03.005Z,21.24
2019-01-18T08:35:29.048Z,21.23
2019-01-18T08:37:55.031Z,21.24
2019-01-18T08:40:21.018Z,21.25
2019-01-18T08:42:47.046Z,21.25
2019-01-18T08:45:13.047Z,21.25
2019-01-18T08:47:39.040Z,21.27
2019-01-18T08:50:05.072Z,21.27
2019-01-18T08:52:31.191Z,21.26
2019-01-18T08:54:57.208Z,21.27
2019-01-18T08:57:23.243Z,21.27
2019-01-18T08:59:49.236Z,21.26
2019-01-18T09:02:15.233Z,21.27
2019-01-18T09:04:41.262Z,21.27
2019-01-18T09:07:07.253Z,21.26
2019-01-18T09:09:33.268Z,21.25
2019-01-18T09:11:59.299Z,21.23
2019-01-18T09:14:25.287Z,21.23
2019-01-18T09:16:51.302Z,21.22
2019-01-18T09:19:17.317Z,21.22
2019-01-18T09:21:43.313Z,21.21
2019-01-18T09:24:09.321Z,21.20
2019-01-18T09:26:35.350Z,21.19
2019-01-18T09:29:01.389Z,21.19
2019-01-18T09:31:27.417Z,21.19
2019-01-18T09:33:53.458Z,21.19
2019-01-18T09:36:19.449Z,21.18
2019-01-18T09:38:45.441Z,21.18
2019-01-18T09:41:11.481Z,21.19
2019-01-18T09:43:37.470Z,21.17
2019-01-18T09:46:03.454Z,21.17
2019-01-18T09:48:29.503Z,21.17
2019-01-18T09:50:55.495Z,21.16
2019-01-18T09:53:21.489Z,21.16
2019-01-18T09:55:47.557Z,21.15
2019-01-18T09:58:13.559Z,21.15
2019-01-18T10:00:39.549Z,21.15
2019-01-18T10:03:05.577Z,21.14
2019-01-18T10:05:31.592Z,21.14
2019-01-18T10:07:57.582Z,21.14
2019-01-18T10:10:23.627Z,21.14
2019-01-18T10:12:49.624Z,21.13
2019-01-18T10:15:15.732Z,21.14
2019-01-18T10:17:41.753Z,21.13
2019-01-18T10:20:07.750Z,21.13
2019-01-18T10:22:33.801Z,21.13
2019-01-18T10:24:59.806Z,21.12
2019-01-18T10:27:25.806Z,21.12
2019-01-18T10:29:51.835Z,21.11
2019-01-18T10:32:17.866Z,21.11
2019-01-18T10:34:43.862Z,21.11
2019-01-18T10:37:09.864Z,21.12
2019-01-18T10:39:35.909Z,21.11
2019-01-18T10:42:01.891Z,21.11
2019-01-18T10:44:27.886Z,21.10
2019-01-18T10:46:53.919Z,21.10
2019-01-18T10:49:19.939Z,21.09
2019-01-18T10:51:45.930Z,21.09
2019-01-18T10:54:11.956Z,21.09
2019-01-18T10:56:37.957Z,21.10
2019-01-18T10:59:03.957Z,21.09
2019-01-18T11:01:29.986Z,21.09
2019-01-18T11:03:55.966Z,21.09
2019-01-18T11:06:21.964Z,21.08
2019-01-18T11:08:47.976Z,21.09
2019-01-18T11:11:14.015Z,21.08
2019-01-18T11:13:40.018Z,21.07
2019-01-18T11:16:06.068Z,21.06
2019-01-18T11:18:32.090Z,21.07
2019-01-18T11:21:03.174Z,21.07
2019-01-18T11:23:29.212Z,21.07
2019-01-18T11:25:55.199Z,21.07
2019-01-18T11:28:21.199Z,21.07
2019-01-18T11:30:47.259Z,21.07
2019-01-18T11:33:13.251Z,21.07
2019-01-18T11:35:39.242Z,21.07
2019-01-18T11:38:05.316Z,21.06
2019-01-18T11:40:31.359Z,21.07
2019-01-18T11:42:57.343Z,21.08
2019-01-18T11:45:23.358Z,21.08
2019-01-18T11:47:49.367Z,21.09
2019-01-18T11:50:15.390Z,21.08
2019-01-18T11:52:41.422Z,21.09
2019-01-18T11:55:07.413Z,21.09
2019-01-18T11:57:33.447Z,21.09
2019-01-18T11:59:59.440Z,21.11
2019-01-18T12:02:25.430Z,21.13
2019-01-18T12:04:51.493Z,21.14
2019-01-18T12:07:17.517Z,21.16
2019-01-18T12:09:43.517Z,21.14
2019-01-18T12:12:09.568Z,21.17
2019-01-18T12:14:35.576Z,21.18
2019-01-18T12:17:01.571Z,21.20
2019-01-18T12:19:27.613Z,21.20
2019-01-18T12:21:53.600Z,21.22
2019-01-18T12:24:19.607Z,21.24
2019-01-18T12:26:45.628Z,21.25
2019-01-18T12:29:11.611Z,21.26
2019-01-18T12:31:37.614Z,21.28
2019-01-18T12:34:03.662Z,21.29
2019-01-18T12:36:29.655Z,21.29
2019-01-18T12:38:55.634Z,21.31
2019-01-18T12:41:21.659Z,21.32
2019-01-18T12:43:47.675Z,21.32
2019-01-18T12:46:13.678Z,21.32
2019-01-18T12:48:39.706Z,21.32
2019-01-18T12:51:05.700Z,21.31
2019-01-18T12:53:31.695Z,21.31
2019-01-18T12:55:57.717Z,21.31
2019-01-18T12:58:23.700Z,21.32
2019-01-18T13:00:49.704Z,21.34
2019-01-18T13:03:15.786Z,21.33
2019-01-18T13:05:47.731Z,21.32
2019-01-18T13:08:13.719Z,21.30
2019-01-18T13:10:39.813Z,21.31
2019-01-18T13:13:05.782Z,21.31
2019-01-18T13:15:31.774Z,21.31
2019-01-18T13:17:57.824Z,21.31
2019-01-18T13:20:23.866Z,21.30
2019-01-18T13:22:49.854Z,21.29
2019-01-18T13:25:15.899Z,21.28
2019-01-18T13:27:41.882Z,21.28
2019-01-18T13:30:07.867Z,21.29
2019-01-18T13:32:33.924Z,21.29
2019-01-18T13:34:59.909Z,21.27
2019-01-18T13:37:25.896Z,21.27
2019-01-18T13:39:52.037Z,21.27
2019-01-18T13:42:18.019Z,21.27
2019-01-18T13:44:44.007Z,21.27
2019-01-18T13:47:10.041Z,21.27
2019-01-18T13:49:36.048Z,21.25
2019-01-18T13:52:02.048Z,21.25
2019-01-18T13:54:28.098Z,21.25
2019-01-18T13:56:54.106Z,21.24
2019-01-18T13:59:20.091Z,21.23
2019-01-18T14:01:46.129Z,21.23
2019-01-18T14:04:12.168Z,21.23
2019-01-18T14:06:38.161Z,21.22
2019-01-18T14:09:04.194Z,21.23
2019-01-18T14:11:30.299Z,21.23
2019-01-18T14:13:56.273Z,21.22
2019-01-18T14:16:22.309Z,21.22
2019-01-18T14:18:48.314Z,21.21
2019-01-18T14:21:14.314Z,21.21
2019-01-18T14:23:40.349Z,21.20
2019-01-18T14:26:06.348Z,21.19
2019-01-18T14:28:32.362Z,21.19
2019-01-18T14:30:58.396Z,21.18
2019-01-18T14:33:24.383Z,21.18
2019-01-18T14:35:50.438Z,21.17
2019-01-18T14:38:16.476Z,21.18
2019-01-18T14:40:42.463Z,21.16
2019-01-18T14:43:08.481Z,21.16
2019-01-18T14:45:34.535Z,21.16
2019-01-18T14:48:00.523Z,21.15
2019-01-18T14:50:26.521Z,21.14
2019-01-18T14:52:52.570Z,21.14
2019-01-18T14:55:18.563Z,21.14
2019-01-18T14:57:44.577Z,21.13
2019-01-18T15:00:10.644Z,21.12
2019-01-18T15:02:36.632Z,21.11
2019-01-18T15:05:04.255Z,21.11
2019-01-18T15:07:28.689Z,21.11
2019-01-18T15:09:57.599Z,21.12
2019-01-18T15:12:20.708Z,21.11
2019-01-18T15:14:46.785Z,21.09
2019-01-18T15:17:12.806Z,21.09
2019-01-18T15:19:38.824Z,21.09
2019-01-18T15:22:04.847Z,21.09
2019-01-18T15:24:30.847Z,21.08
2019-01-18T15:26:56.864Z,21.08
2019-01-18T15:29:22.906Z,21.08
2019-01-18T15:31:48.908Z,21.09
2019-01-18T15:34:14.934Z,21.09
2019-01-18T15:36:40.983Z,21.09
2019-01-18T15:39:06.998Z,21.09
2019-01-18T15:41:33.001Z,21.09
2019-01-18T15:43:59.100Z,21.08
2019-01-18T15:46:25.098Z,21.10
2019-01-18T15:48:51.113Z,21.09
2019-01-18T15:51:17.172Z,21.09
2019-01-18T15:53:43.174Z,21.09
2019-01-18T15:56:09.182Z,21.10
2019-01-18T15:58:35.709Z,21.11
2019-01-18T16:01:04.707Z,21.13
2019-01-18T16:03:30.705Z,21.15
2019-01-18T16:05:56.792Z,21.17
2019-01-18T16:08:22.798Z,21.17
2019-01-18T16:10:48.856Z,21.18
2019-01-18T16:13:14.851Z,21.20
2019-01-18T16:15:40.848Z,21.21
2019-01-18T16:18:07.008Z,21.22
2019-01-18T16:20:33.173Z,21.22
2019-01-18T16:22:59.168Z,21.23
2019-01-18T16:25:25.233Z,21.25
2019-01-18T16:27:51.244Z,21.26
2019-01-18T16:30:17.239Z,21.27
2019-01-18T16:32:43.298Z,21.26
2019-01-18T16:35:09.341Z,21.26
2019-01-18T16:37:35.316Z,21.29
2019-01-18T16:40:01.372Z,21.29
2019-01-18T16:42:27.371Z,21.30
2019-01-18T16:44:53.376Z,21.30
2019-01-18T16:47:19.411Z,21.29
2019-01-18T16:49:45.408Z,21.29
2019-01-18T16:52:11.421Z,21.31
2019-01-18T16:54:37.480Z,21.33
2019-01-18T16:57:03.476Z,21.34
2019-01-18T16:59:29.508Z,21.32
2019-01-18T17:01:55.573Z,21.29
2019-01-18T17:04:21.761Z,21.31
2019-01-18T17:06:47.764Z,21.30
2019-01-18T17:09:13.823Z,21.32
2019-01-18T17:11:39.820Z,21.31
2019-01-18T17:14:05.816Z,21.32
2019-01-18T17:16:31.846Z,21.34
2019-01-18T17:18:57.855Z,21.33
2019-01-18T17:21:23.942Z,21.31
2019-01-18T17:23:49.984Z,21.31
2019-01-18T17:26:16.229Z,21.32
2019-01-18T17:28:42.225Z,21.30
2019-01-18T17:31:08.369Z,21.30
2019-01-18T17:33:36.819Z,21.30
2019-01-18T17:36:00.364Z,21.29
2019-01-18T17:38:26.391Z,21.28
2019-01-18T17:40:52.399Z,21.28
2019-01-18T17:43:18.435Z,21.29
2019-01-18T17:45:44.439Z,21.31
2019-01-18T17:48:10.438Z,21.29
2019-01-18T17:50:36.476Z,21.29
2019-01-18T17:53:02.472Z,21.30
2019-01-18T17:55:28.462Z,21.29
2019-01-18T17:57:54.552Z,21.30
2019-01-18T18:00:20.562Z,21.30
2019-01-18T18:02:46.565Z,21.32
2019-01-18T18:05:12.712Z,21.31
2019-01-18T18:07:39.077Z,21.31
2019-01-18T18:10:05.080Z,21.30
2019-01-18T18:12:31.307Z,21.30
2019-01-18T18:14:57.424Z,21.29
2019-01-18T18:17:23.426Z,21.28
2019-01-18T18:19:49.471Z,21.28
2019-01-18T18:22:15.510Z,21.27
2019-01-18T18:24:41.536Z,21.26
2019-01-18T18:27:07.652Z,21.26
2019-01-18T18:29:33.654Z,21.25
2019-01-18T18:31:59.677Z,21.24
2019-01-18T18:34:25.735Z,21.24
2019-01-18T18:36:51.778Z,21.23
2019-01-18T18:39:17.878Z,21.23
2019-01-18T18:41:43.930Z,21.23
2019-01-18T18:44:10.034Z,21.22
2019-01-18T18:46:36.035Z,21.22
2019-01-18T18:49:02.072Z,21.22
2019-01-18T18:51:28.313Z,21.22
2019-01-18T18:53:54.517Z,21.22
2019-01-18T18:56:20.781Z,21.21
2019-01-18T18:58:46.820Z,21.21
2019-01-18T19:01:13.129Z,21.19
2019-01-18T19:03:39.136Z,21.21
2019-01-18T19:06:07.877Z,21.17
2019-01-18T19:08:33.917Z,21.19
2019-01-18T19:11:00.053Z,21.19
2019-01-18T19:13:26.103Z,21.19
2019-01-18T19:15:52.119Z,21.17
2019-01-18T19:18:18.439Z,21.18
2019-01-18T19:20:44.613Z,21.17
2019-01-18T19:23:10.738Z,21.17
2019-01-18T19:25:36.761Z,21.16
2019-01-18T19:28:02.887Z,21.16
2019-01-18T19:30:28.884Z,21.14
2019-01-18T19:32:58.250Z,21.16
2019-01-18T19:35:23.012Z,21.17
2019-01-18T19:37:48.992Z,21.17
2019-01-18T19:40:14.982Z,21.16
2019-01-18T19:42:41.055Z,21.16
2019-01-18T19:45:07.052Z,21.17
2019-01-18T19:47:33.047Z,21.17
2019-01-18T19:49:59.069Z,21.18
2019-01-18T19:52:25.190Z,21.19
2019-01-18T19:54:51.230Z,21.20
2019-01-18T19:57:17.284Z,21.20
2019-01-18T19:59:43.284Z,21.22
2019-01-18T20:02:09.285Z,21.21
2019-01-18T20:04:35.625Z,21.21
2019-01-18T20:07:01.595Z,21.23
2019-01-18T20:09:27.758Z,21.24
2019-01-18T20:11:53.784Z,21.22
2019-01-18T20:14:19.780Z,21.24
2019-01-18T20:16:45.828Z,21.24
2019-01-18T20:19:11.881Z,21.24
2019-01-18T20:21:37.955Z,21.25
2019-01-18T20:24:04.001Z,21.25
2019-01-18T20:26:30.132Z,21.26
2019-01-18T20:28:56.150Z,21.26
2019-01-18T20:31:22.180Z,21.26
2019-01-18T20:33:48.212Z,21.27
2019-01-18T20:36:14.225Z,21.27
2019-01-18T20:38:40.867Z,21.28
2019-01-18T20:41:06.930Z,21.33
2019-01-18T20:43:32.928Z,21.31
2019-01-18T20:45:58.924Z,21.32
2019-01-18T20:48:24.976Z,21.32
2019-01-18T20:50:51.106Z,21.33
2019-01-18T20:53:17.701Z,21.32
2019-01-18T20:55:43.716Z,21.32
2019-01-18T20:58:10.059Z,21.30
2019-01-18T21:00:36.069Z,21.30
2019-01-18T21:03:02.076Z,21.30
2019-01-18T21:05:28.651Z,21.29
2019-01-18T21:07:54.653Z,21.29
2019-01-18T21:10:20.694Z,21.29
2019-01-18T21:12:46.729Z,21.29
2019-01-18T21:15:13.050Z,21.29
2019-01-18T21:17:39.092Z,21.28
2019-01-18T21:20:05.132Z,21.29
2019-01-18T21:22:31.142Z,21.29
2019-01-18T21:24:57.193Z,21.29
2019-01-18T21:27:23.191Z,21.29
2019-01-18T21:29:49.190Z,21.28
2019-01-18T21:32:15.203Z,21.28
2019-01-18T21:34:41.269Z,21.28
2019-01-18T21:37:07.264Z,21.28
2019-01-18T21:39:33.326Z,21.28
2019-01-18T21:41:59.307Z,21.28
2019-01-18T21:44:25.306Z,21.27
2019-01-18T21:46:51.351Z,21.28
2019-01-18T21:49:17.347Z,21.29
2019-01-18T21:51:43.344Z,21.28
2019-01-18T21:54:09.398Z,21.27
2019-01-18T21:56:35.391Z,21.27
2019-01-18T21:59:01.385Z,21.26
2019-01-18T22:01:27.429Z,21.27
2019-01-18T22:03:53.425Z,21.27
2019-01-18T22:06:19.425Z,21.26
2019-01-18T22:08:45.436Z,21.26
2019-01-18T22:11:11.433Z,21.27
2019-01-18T22:13:37.474Z,21.26
2019-01-18T22:16:03.474Z,21.25
2019-01-18T22:18:29.464Z,21.26
2019-01-18T22:20:55.505Z,21.25
2019-01-18T22:23:21.503Z,21.25
2019-01-18T22:25:47.501Z,21.25
2019-01-18T22:28:13.543Z,21.26
2019-01-18T22:30:39.543Z,21.25
2019-01-18T22:33:05.544Z,21.24
2019-01-18T22:35:31.604Z,21.25
2019-01-18T22:37:57.601Z,21.25
2019-01-18T22:40:23.594Z,21.25
2019-01-18T22:42:49.637Z,21.25
2019-01-18T22:45:15.632Z,21.25
2019-01-18T22:47:41.624Z,21.25
2019-01-18T22:50:07.664Z,21.24
2019-01-18T22:52:33.661Z,21.25
2019-01-18T22:54:59.655Z,21.25
2019-01-18T22:57:25.699Z,21.25
2019-01-18T22:59:51.697Z,21.25
2019-01-18T23:02:19.333Z,21.25
2019-01-18T23:04:43.732Z,21.25
2019-01-18T23:07:09.734Z,21.25
2019-01-18T23:09:35.726Z,21.25
2019-01-18T23:12:01.772Z,21.25
2019-01-18T23:14:27.768Z,21.24
2019-01-18T23:16:53.764Z,21.25
2019-01-18T23:19:19.803Z,21.25
2019-01-18T23:21:45.799Z,21.24
2019-01-18T23:24:11.795Z,21.25
2019-01-18T23:26:37.840Z,21.25
2019-01-18T23:29:03.842Z,21.25
2019-01-18T23:31:29.835Z,21.25
2019-01-18T23:33:55.845Z,21.25
2019-01-18T23:36:21.854Z,21.24
2019-01-18T23:38:47.895Z,21.24
2019-01-18T23:41:13.893Z,21.24
2019-01-18T23:43:39.893Z,21.24
2019-01-18T23:46:05.936Z,21.24
2019-01-18T23:48:31.942Z,21.24
2019-01-18T23:50:57.937Z,21.24
2019-01-18T23:53:23.981Z,21.23
2019-01-18T23:55:49.980Z,21.24
2019-01-18T23:58:15.976Z,21.24
